Sanford, ME

12:15 PM EDT on May 27, 2015 (GMT -0400)
Sanford Regional | | Change Station
CLOSE
Current Station
Airport
Location: Sanford,
Elevation: 243 ft
Nearby Weather Stations

Elev 243 ft 43.39 °N, 70.71 °W | Updated 20 minutes ago

Clear
Clear
82 °F
Feels Like 84 °F
N
8
Wind Variable Wind from South

Today
High -- | Low -- °F
--% Chance of Precip.
Yesterday
High -- | Low -- °F
Precip. -- in
5:08 AM 8:12 PM
Waxing Gibbous, 68% visible
Pressure 30.10 in
Visibility 10.0 miles
Clouds Clear
Heat Index 84 °F
Dew Point 64 °F
Humidity 54%
Rainfall 0.00 in
Snow Depth Not available.
UV 11 out of 12
Pollen 8.70 out of 12
Air Quality Not available.
Flu Activity Local Activity
METAR KSFM 271555Z AUTO 19007KT 150V210 10SM CLR 28/18 A3010 RMK AO1

More Conditions Fewer Conditions

Pressure 30.10 in
Visibility 10.0 miles
Clouds Clear
Heat Index 84 °F
Dew Point 64 °F
Humidity 54%
Rainfall 0.00 in
Snow Depth Not available.
UV 11 out of 12
Pollen 8.70 out of 12
Air Quality Not available.
Flu Activity Local Activity
METAR KSFM 271555Z AUTO 19007KT 150V210 10SM CLR 28/18 A3010 RMK AO1

More Conditions Fewer Conditions

10-Day Weather Forecast

Almanac

Astronomy

May. 27, 2015 Rise Set
Actual Time
Civil Twilight
Nautical Twilight
Astronomical Twilight
Moon
Length of Visible Light
Length of Day
Tomorrow will be .
, % of the Moon is Illuminated

Today's Extremes

State Highs State Lows

Community

WunderPhotos

Upload Photos

1,824,707 photos uploaded!

WunderBlogs® & News

Nearby

Air Quality

  Air Quality AQ Index Pollutant
Not available.

Snow Depth

Station Depth Elevation

Earthquake Activity

City Distance Mag. Time & Date
Minimum magnitude displayed is 2.5.

Coastal Water Temperatures

Place Temperature

Stations

Nearby Weather Stations

Station Location Temp. Windchill Dew Point Humidity Wind Precip. Elev Updated Type